sensor_id;sensor_type;location;lat;lon;timestamp;temperature;humidity
2002;DHT22;1003;48.002;7.788;2023-05-07T00:00:50;13.30;99.90
2002;DHT22;1003;48.002;7.788;2023-05-07T00:03:19;13.30;99.90
2002;DHT22;1003;48.002;7.788;2023-05-07T00:05:47;13.20;99.90
2002;DHT22;1003;48.002;7.788;2023-05-07T00:08:14;13.10;99.90
2002;DHT22;1003;48.002;7.788;2023-05-07T00:10:41;13.00;99.90
2002;DHT22;1003;48.002;7.788;2023-05-07T00:13:11;12.90;99.90
2002;DHT22;1003;48.002;7.788;2023-05-07T00:15:39;12.80;99.90
2002;DHT22;1003;48.002;7.788;2023-05-07T00:18:06;12.70;99.90
2002;DHT22;1003;48.002;7.788;2023-05-07T00:20:34;12.60;99.90
2002;DHT22;1003;48.002;7.788;2023-05-07T00:23:01;12.50;99.90
2002;DHT22;1003;48.002;7.788;2023-05-07T00:25:28;12.50;99.90
2002;DHT22;1003;48.002;7.788;2023-05-07T00:27:55;12.40;99.90
2002;DHT22;1003;48.002;7.788;2023-05-07T00:30:23;12.40;99.90
2002;DHT22;1003;48.002;7.788;2023-05-07T00:32:50;12.40;99.90
2002;DHT22;1003;48.002;7.788;2023-05-07T00:35:17;12.30;99.90
2002;DHT22;1003;48.002;7.788;2023-05-07T00:37:45;12.40;99.90
2002;DHT22;1003;48.002;7.788;2023-05-07T00:40:13;12.30;99.90
2002;DHT22;1003;48.002;7.788;2023-05-07T00:42:41;12.40;99.90
2002;DHT22;1003;48.002;7.788;2023-05-07T00:45:12;12.40;99.90
2002;DHT22;1003;48.002;7.788;2023-05-07T00:47:39;12.40;99.90
2002;DHT22;1003;48.002;7.788;2023-05-07T00:50:08;12.40;99.90
2002;DHT22;1003;48.002;7.788;2023-05-07T00:52:38;12.40;99.90
2002;DHT22;1003;48.002;7.788;2023-05-07T00:55:08;12.30;99.90
2002;DHT22;1003;48.002;7.788;2023-05-07T00:57:37;12.30;99.90
2002;DHT22;1003;48.002;7.788;2023-05-07T01:00:07;12.40;99.90
2002;DHT22;1003;48.002;7.788;2023-05-07T01:02:36;12.40;99.90
2002;DHT22;1003;48.002;7.788;2023-05-07T01:05:04;12.50;99.90
2002;DHT22;1003;48.002;7.788;2023-05-07T01:07:36;12.50;99.90
2002;DHT22;1003;48.002;7.788;2023-05-07T01:10:06;12.50;99.90
2002;DHT22;1003;48.002;7.788;2023-05-07T01:12:37;12.60;99.90
2002;DHT22;1003;48.002;7.788;2023-05-07T01:15:08;12.60;99.90
2002;DHT22;1003;48.002;7.788;2023-05-07T01:17:37;12.70;99.90
2002;DHT22;1003;48.002;7.788;2023-05-07T01:20:07;12.70;99.90
2002;DHT22;1003;48.002;7.788;2023-05-07T01:22:38;12.70;99.90
2002;DHT22;1003;48.002;7.788;2023-05-07T01:25:07;12.70;99.90
2002;DHT22;1003;48.002;7.788;2023-05-07T01:27:34;12.70;99.90
2002;DHT22;1003;48.002;7.788;2023-05-07T01:30:02;12.70;99.90
2002;DHT22;1003;48.002;7.788;2023-05-07T01:32:33;12.60;99.90
2002;DHT22;1003;48.002;7.788;2023-05-07T01:35:07;12.60;99.90
2002;DHT22;1003;48.002;7.788;2023-05-07T01:37:37;12.50;99.90
2002;DHT22;1003;48.002;7.788;2023-05-07T01:40:06;12.50;99.90
2002;DHT22;1003;48.002;7.788;2023-05-07T01:42:35;12.40;99.90
2002;DHT22;1003;48.002;7.788;2023-05-07T01:45:03;12.40;99.90
2002;DHT22;1003;48.002;7.788;2023-05-07T01:47:31;12.40;99.90
2002;DHT22;1003;48.002;7.788;2023-05-07T01:49:59;12.30;99.90
2002;DHT22;1003;48.002;7.788;2023-05-07T01:52:28;12.30;99.90
2002;DHT22;1003;48.002;7.788;2023-05-07T01:54:56;12.20;99.90
2002;DHT22;1003;48.002;7.788;2023-05-07T01:57:23;12.20;99.90
2002;DHT22;1003;48.002;7.788;2023-05-07T01:59:50;12.10;99.90
2002;DHT22;1003;48.002;7.788;2023-05-07T02:02:17;12.00;99.90
2002;DHT22;1003;48.002;7.788;2023-05-07T02:04:44;11.90;99.90
2002;DHT22;1003;48.002;7.788;2023-05-07T02:07:12;11.80;99.90
2002;DHT22;1003;48.002;7.788;2023-05-07T02:09:39;11.70;99.90
2002;DHT22;1003;48.002;7.788;2023-05-07T02:12:07;11.70;99.90
2002;DHT22;1003;48.002;7.788;2023-05-07T02:14:34;11.60;99.90
2002;DHT22;1003;48.002;7.788;2023-05-07T02:17:01;11.50;99.90
2002;DHT22;1003;48.002;7.788;2023-05-07T02:19:28;11.40;99.90
2002;DHT22;1003;48.002;7.788;2023-05-07T02:21:55;11.40;99.90
2002;DHT22;1003;48.002;7.788;2023-05-07T02:24:22;11.30;99.90
2002;DHT22;1003;48.002;7.788;2023-05-07T02:26:49;11.30;99.90
2002;DHT22;1003;48.002;7.788;2023-05-07T02:29:17;11.20;99.90
2002;DHT22;1003;48.002;7.788;2023-05-07T02:31:44;11.20;99.90
2002;DHT22;1003;48.002;7.788;2023-05-07T02:34:12;11.20;99.90
2002;DHT22;1003;48.002;7.788;2023-05-07T02:36:39;11.10;99.90
2002;DHT22;1003;48.002;7.788;2023-05-07T02:39:06;11.10;99.90
2002;DHT22;1003;48.002;7.788;2023-05-07T02:41:36;11.00;99.90
2002;DHT22;1003;48.002;7.788;2023-05-07T02:44:04;11.00;99.90
2002;DHT22;1003;48.002;7.788;2023-05-07T02:46:35;10.90;99.90
2002;DHT22;1003;48.002;7.788;2023-05-07T02:49:02;10.90;99.90
2002;DHT22;1003;48.002;7.788;2023-05-07T02:51:30;10.80;99.90
2002;DHT22;1003;48.002;7.788;2023-05-07T02:53:57;10.80;99.90
2002;DHT22;1003;48.002;7.788;2023-05-07T02:56:26;10.80;99.90
2002;DHT22;1003;48.002;7.788;2023-05-07T02:58:55;10.70;99.90
2002;DHT22;1003;48.002;7.788;2023-05-07T03:01:22;10.70;99.90
2002;DHT22;1003;48.002;7.788;2023-05-07T03:03:51;10.70;99.90
2002;DHT22;1003;48.002;7.788;2023-05-07T03:06:18;10.70;99.90
2002;DHT22;1003;48.002;7.788;2023-05-07T03:08:45;10.70;99.90
2002;DHT22;1003;48.002;7.788;2023-05-07T03:11:12;10.80;99.90
2002;DHT22;1003;48.002;7.788;2023-05-07T03:13:39;10.80;99.90
2002;DHT22;1003;48.002;7.788;2023-05-07T03:16:06;10.80;99.90
2002;DHT22;1003;48.002;7.788;2023-05-07T03:18:34;10.80;99.90
2002;DHT22;1003;48.002;7.788;2023-05-07T03:21:02;10.80;99.90
2002;DHT22;1003;48.002;7.788;2023-05-07T03:23:29;10.80;99.90
2002;DHT22;1003;48.002;7.788;2023-05-07T03:25:56;10.80;99.90
2002;DHT22;1003;48.002;7.788;2023-05-07T03:28:23;10.80;99.90
2002;DHT22;1003;48.002;7.788;2023-05-07T03:30:50;10.70;99.90
2002;DHT22;1003;48.002;7.788;2023-05-07T03:33:17;10.60;99.90
2002;DHT22;1003;48.002;7.788;2023-05-07T03:35:44;10.50;99.90
2002;DHT22;1003;48.002;7.788;2023-05-07T03:38:13;10.50;99.90
2002;DHT22;1003;48.002;7.788;2023-05-07T03:40:40;10.40;99.90
2002;DHT22;1003;48.002;7.788;2023-05-07T03:43:07;10.40;99.90
2002;DHT22;1003;48.002;7.788;2023-05-07T03:45:34;10.30;99.90
2002;DHT22;1003;48.002;7.788;2023-05-07T03:48:03;10.30;99.90
2002;DHT22;1003;48.002;7.788;2023-05-07T03:50:30;10.30;99.90
2002;DHT22;1003;48.002;7.788;2023-05-07T03:52:57;10.30;99.90
2002;DHT22;1003;48.002;7.788;2023-05-07T03:55:25;10.30;99.90
2002;DHT22;1003;48.002;7.788;2023-05-07T03:57:52;10.30;99.90
2002;DHT22;1003;48.002;7.788;2023-05-07T04:00:20;10.30;99.90
2002;DHT22;1003;48.002;7.788;2023-05-07T04:02:47;10.30;99.90
2002;DHT22;1003;48.002;7.788;2023-05-07T04:05:14;10.30;99.90
2002;DHT22;1003;48.002;7.788;2023-05-07T04:07:42;10.30;99.90
2002;DHT22;1003;48.002;7.788;2023-05-07T04:10:10;10.30;99.90
2002;DHT22;1003;48.002;7.788;2023-05-07T04:12:40;10.30;99.90
2002;DHT22;1003;48.002;7.788;2023-05-07T04:15:08;10.30;99.90
2002;DHT22;1003;48.002;7.788;2023-05-07T04:17:35;10.30;99.90
2002;DHT22;1003;48.002;7.788;2023-05-07T04:20:03;10.40;99.90
2002;DHT22;1003;48.002;7.788;2023-05-07T04:22:32;10.40;99.90
2002;DHT22;1003;48.002;7.788;2023-05-07T04:25:00;10.50;99.90
2002;DHT22;1003;48.002;7.788;2023-05-07T04:27:27;10.60;99.90
2002;DHT22;1003;48.002;7.788;2023-05-07T04:29:56;10.70;99.90
2002;DHT22;1003;48.002;7.788;2023-05-07T04:32:23;10.70;99.90
2002;DHT22;1003;48.002;7.788;2023-05-07T04:34:51;10.80;99.90
2002;DHT22;1003;48.002;7.788;2023-05-07T04:37:18;10.80;99.90
2002;DHT22;1003;48.002;7.788;2023-05-07T04:39:45;10.90;99.90
2002;DHT22;1003;48.002;7.788;2023-05-07T04:42:14;11.00;99.90
2002;DHT22;1003;48.002;7.788;2023-05-07T04:44:41;11.20;99.90
2002;DHT22;1003;48.002;7.788;2023-05-07T04:47:10;11.30;99.90
2002;DHT22;1003;48.002;7.788;2023-05-07T04:49:37;11.30;99.90
2002;DHT22;1003;48.002;7.788;2023-05-07T04:52:04;11.30;99.90
2002;DHT22;1003;48.002;7.788;2023-05-07T04:54:32;11.30;99.90
2002;DHT22;1003;48.002;7.788;2023-05-07T04:56:59;11.40;99.90
2002;DHT22;1003;48.002;7.788;2023-05-07T04:59:26;11.60;99.90
2002;DHT22;1003;48.002;7.788;2023-05-07T05:01:53;11.70;99.90
2002;DHT22;1003;48.002;7.788;2023-05-07T05:04:21;11.90;99.90
2002;DHT22;1003;48.002;7.788;2023-05-07T05:06:49;12.10;99.90
2002;DHT22;1003;48.002;7.788;2023-05-07T05:09:16;12.30;99.90
2002;DHT22;1003;48.002;7.788;2023-05-07T05:11:43;12.50;99.90
2002;DHT22;1003;48.002;7.788;2023-05-07T05:14:10;12.70;99.90
2002;DHT22;1003;48.002;7.788;2023-05-07T05:16:37;12.80;99.90
2002;DHT22;1003;48.002;7.788;2023-05-07T05:19:04;12.90;99.90
2002;DHT22;1003;48.002;7.788;2023-05-07T05:21:32;13.00;99.90
2002;DHT22;1003;48.002;7.788;2023-05-07T05:23:59;13.10;99.90
2002;DHT22;1003;48.002;7.788;2023-05-07T05:26:26;13.30;99.90
2002;DHT22;1003;48.002;7.788;2023-05-07T05:28:53;13.40;99.90
2002;DHT22;1003;48.002;7.788;2023-05-07T05:31:21;13.60;99.90
2002;DHT22;1003;48.002;7.788;2023-05-07T05:33:48;14.00;99.90
2002;DHT22;1003;48.002;7.788;2023-05-07T05:36:15;14.60;99.90
2002;DHT22;1003;48.002;7.788;2023-05-07T05:38:43;15.10;99.90
2002;DHT22;1003;48.002;7.788;2023-05-07T05:41:10;15.40;99.90
2002;DHT22;1003;48.002;7.788;2023-05-07T05:43:37;15.40;99.90
2002;DHT22;1003;48.002;7.788;2023-05-07T05:46:05;15.30;99.90
2002;DHT22;1003;48.002;7.788;2023-05-07T05:48:33;15.20;99.90
2002;DHT22;1003;48.002;7.788;2023-05-07T05:51:00;15.00;99.90
2002;DHT22;1003;48.002;7.788;2023-05-07T05:53:27;15.00;99.90
2002;DHT22;1003;48.002;7.788;2023-05-07T05:55:56;15.00;99.90
2002;DHT22;1003;48.002;7.788;2023-05-07T05:58:23;15.10;99.90
2002;DHT22;1003;48.002;7.788;2023-05-07T06:00:50;15.60;99.90
2002;DHT22;1003;48.002;7.788;2023-05-07T06:03:18;16.10;99.90
2002;DHT22;1003;48.002;7.788;2023-05-07T06:05:45;16.50;99.90
2002;DHT22;1003;48.002;7.788;2023-05-07T06:08:13;16.90;99.90
2002;DHT22;1003;48.002;7.788;2023-05-07T06:10:41;17.60;99.90
2002;DHT22;1003;48.002;7.788;2023-05-07T06:13:10;18.30;99.90
2002;DHT22;1003;48.002;7.788;2023-05-07T06:15:37;19.00;99.90
2002;DHT22;1003;48.002;7.788;2023-05-07T06:18:04;19.70;99.90
2002;DHT22;1003;48.002;7.788;2023-05-07T06:20:31;20.00;99.90
2002;DHT22;1003;48.002;7.788;2023-05-07T06:22:59;19.90;99.90
2002;DHT22;1003;48.002;7.788;2023-05-07T06:25:26;20.60;99.90
2002;DHT22;1003;48.002;7.788;2023-05-07T06:27:53;20.80;99.90
2002;DHT22;1003;48.002;7.788;2023-05-07T06:30:21;20.30;99.90
2002;DHT22;1003;48.002;7.788;2023-05-07T06:32:48;19.50;99.90
2002;DHT22;1003;48.002;7.788;2023-05-07T06:35:15;19.20;99.90
2002;DHT22;1003;48.002;7.788;2023-05-07T06:37:42;18.90;99.90
2002;DHT22;1003;48.002;7.788;2023-05-07T06:40:10;18.70;99.90
2002;DHT22;1003;48.002;7.788;2023-05-07T06:42:37;18.50;99.90
2002;DHT22;1003;48.002;7.788;2023-05-07T06:45:05;18.60;99.90
2002;DHT22;1003;48.002;7.788;2023-05-07T06:47:35;18.70;99.90
2002;DHT22;1003;48.002;7.788;2023-05-07T06:50:02;19.40;99.90
2002;DHT22;1003;48.002;7.788;2023-05-07T06:52:29;19.70;99.90
2002;DHT22;1003;48.002;7.788;2023-05-07T06:54:56;20.20;99.90
2002;DHT22;1003;48.002;7.788;2023-05-07T06:57:24;20.50;99.90
2002;DHT22;1003;48.002;7.788;2023-05-07T06:59:51;20.90;99.90
2002;DHT22;1003;48.002;7.788;2023-05-07T07:02:18;21.00;99.90
2002;DHT22;1003;48.002;7.788;2023-05-07T07:04:46;21.30;99.90
2002;DHT22;1003;48.002;7.788;2023-05-07T07:07:13;21.50;99.90
2002;DHT22;1003;48.002;7.788;2023-05-07T07:09:40;21.50;99.90
2002;DHT22;1003;48.002;7.788;2023-05-07T07:12:07;21.70;99.90
2002;DHT22;1003;48.002;7.788;2023-05-07T07:14:34;21.80;99.90
2002;DHT22;1003;48.002;7.788;2023-05-07T07:17:02;22.10;99.90
2002;DHT22;1003;48.002;7.788;2023-05-07T07:19:30;22.10;99.90
2002;DHT22;1003;48.002;7.788;2023-05-07T07:21:59;21.90;99.90
2002;DHT22;1003;48.002;7.788;2023-05-07T07:24:26;21.80;99.90
2002;DHT22;1003;48.002;7.788;2023-05-07T07:26:53;21.60;99.90
2002;DHT22;1003;48.002;7.788;2023-05-07T07:29:20;21.70;99.90
2002;DHT22;1003;48.002;7.788;2023-05-07T07:31:48;21.70;99.90
2002;DHT22;1003;48.002;7.788;2023-05-07T07:34:15;21.70;99.90
2002;DHT22;1003;48.002;7.788;2023-05-07T07:36:42;21.60;99.90
2002;DHT22;1003;48.002;7.788;2023-05-07T07:39:11;21.50;99.90
2002;DHT22;1003;48.002;7.788;2023-05-07T07:41:38;21.60;99.90
2002;DHT22;1003;48.002;7.788;2023-05-07T07:44:05;21.70;99.90
2002;DHT22;1003;48.002;7.788;2023-05-07T07:46:33;22.20;99.90
2002;DHT22;1003;48.002;7.788;2023-05-07T07:49:00;22.70;99.90
2002;DHT22;1003;48.002;7.788;2023-05-07T07:51:27;22.60;99.90
2002;DHT22;1003;48.002;7.788;2023-05-07T07:53:54;23.00;99.90
2002;DHT22;1003;48.002;7.788;2023-05-07T07:56:24;23.10;99.90
2002;DHT22;1003;48.002;7.788;2023-05-07T07:58:51;23.30;99.90
2002;DHT22;1003;48.002;7.788;2023-05-07T08:01:18;23.20;99.90
2002;DHT22;1003;48.002;7.788;2023-05-07T08:03:45;23.30;99.90
2002;DHT22;1003;48.002;7.788;2023-05-07T08:06:13;23.50;99.90
2002;DHT22;1003;48.002;7.788;2023-05-07T08:08:40;23.10;99.90
2002;DHT22;1003;48.002;7.788;2023-05-07T08:11:07;23.60;99.90
2002;DHT22;1003;48.002;7.788;2023-05-07T08:13:36;23.40;99.90
2002;DHT22;1003;48.002;7.788;2023-05-07T08:16:04;23.30;99.90
2002;DHT22;1003;48.002;7.788;2023-05-07T08:18:32;23.00;99.90
2002;DHT22;1003;48.002;7.788;2023-05-07T08:20:59;22.90;99.90
2002;DHT22;1003;48.002;7.788;2023-05-07T08:23:26;22.90;99.90
2002;DHT22;1003;48.002;7.788;2023-05-07T08:25:53;23.00;99.90
2002;DHT22;1003;48.002;7.788;2023-05-07T08:28:20;23.20;99.90
2002;DHT22;1003;48.002;7.788;2023-05-07T08:30:48;23.40;99.90
2002;DHT22;1003;48.002;7.788;2023-05-07T08:33:15;23.30;99.90
2002;DHT22;1003;48.002;7.788;2023-05-07T08:35:42;23.00;99.90
2002;DHT22;1003;48.002;7.788;2023-05-07T08:38:10;22.70;99.90
2002;DHT22;1003;48.002;7.788;2023-05-07T08:40:38;22.70;99.90
2002;DHT22;1003;48.002;7.788;2023-05-07T08:43:06;22.80;99.90
2002;DHT22;1003;48.002;7.788;2023-05-07T08:45:34;22.70;99.90
2002;DHT22;1003;48.002;7.788;2023-05-07T08:48:04;23.00;99.90
2002;DHT22;1003;48.002;7.788;2023-05-07T08:50:37;23.10;99.90
2002;DHT22;1003;48.002;7.788;2023-05-07T08:53:04;23.40;99.90
2002;DHT22;1003;48.002;7.788;2023-05-07T08:55:32;23.40;99.90
2002;DHT22;1003;48.002;7.788;2023-05-07T08:57:59;23.60;99.90
2002;DHT22;1003;48.002;7.788;2023-05-07T09:00:26;23.50;99.90
2002;DHT22;1003;48.002;7.788;2023-05-07T09:02:53;23.60;99.90
2002;DHT22;1003;48.002;7.788;2023-05-07T09:05:22;23.90;99.90
2002;DHT22;1003;48.002;7.788;2023-05-07T09:07:49;24.00;99.90
2002;DHT22;1003;48.002;7.788;2023-05-07T09:10:16;24.00;99.90
2002;DHT22;1003;48.002;7.788;2023-05-07T09:12:43;23.80;99.90
2002;DHT22;1003;48.002;7.788;2023-05-07T09:15:13;23.60;99.90
2002;DHT22;1003;48.002;7.788;2023-05-07T09:17:40;23.60;99.90
2002;DHT22;1003;48.002;7.788;2023-05-07T09:20:08;23.60;99.90
2002;DHT22;1003;48.002;7.788;2023-05-07T09:22:37;23.30;99.90
2002;DHT22;1003;48.002;7.788;2023-05-07T09:25:06;23.50;99.90
2002;DHT22;1003;48.002;7.788;2023-05-07T09:27:34;23.50;99.90
2002;DHT22;1003;48.002;7.788;2023-05-07T09:30:03;23.90;99.90
2002;DHT22;1003;48.002;7.788;2023-05-07T09:32:34;23.80;99.90
2002;DHT22;1003;48.002;7.788;2023-05-07T09:35:04;24.20;99.90
2002;DHT22;1003;48.002;7.788;2023-05-07T09:37:31;24.10;99.90
2002;DHT22;1003;48.002;7.788;2023-05-07T09:40:00;24.60;99.90
2002;DHT22;1003;48.002;7.788;2023-05-07T09:42:29;24.70;99.90
2002;DHT22;1003;48.002;7.788;2023-05-07T09:44:56;24.60;99.90
2002;DHT22;1003;48.002;7.788;2023-05-07T09:47:24;25.10;99.90
2002;DHT22;1003;48.002;7.788;2023-05-07T09:49:55;24.60;99.90
2002;DHT22;1003;48.002;7.788;2023-05-07T09:52:24;25.00;99.90
2002;DHT22;1003;48.002;7.788;2023-05-07T09:55:00;24.50;99.90
2002;DHT22;1003;48.002;7.788;2023-05-07T09:57:29;24.80;99.90
2002;DHT22;1003;48.002;7.788;2023-05-07T09:59:58;24.70;99.90
2002;DHT22;1003;48.002;7.788;2023-05-07T10:02:29;24.30;99.90
2002;DHT22;1003;48.002;7.788;2023-05-07T10:04:58;24.00;99.90
2002;DHT22;1003;48.002;7.788;2023-05-07T10:07:27;23.70;99.90
2002;DHT22;1003;48.002;7.788;2023-05-07T10:09:55;23.50;99.90
2002;DHT22;1003;48.002;7.788;2023-05-07T10:12:25;23.00;99.90
2002;DHT22;1003;48.002;7.788;2023-05-07T10:14:53;22.20;99.90
2002;DHT22;1003;48.002;7.788;2023-05-07T10:17:23;21.80;99.90
2002;DHT22;1003;48.002;7.788;2023-05-07T10:19:53;21.50;99.90
2002;DHT22;1003;48.002;7.788;2023-05-07T10:22:22;21.20;99.90
2002;DHT22;1003;48.002;7.788;2023-05-07T10:24:52;21.30;99.90
2002;DHT22;1003;48.002;7.788;2023-05-07T10:27:22;21.00;99.90
2002;DHT22;1003;48.002;7.788;2023-05-07T10:29:58;20.80;99.90
2002;DHT22;1003;48.002;7.788;2023-05-07T10:32:38;20.40;99.90
2002;DHT22;1003;48.002;7.788;2023-05-07T10:35:17;20.10;99.90
2002;DHT22;1003;48.002;7.788;2023-05-07T10:37:48;19.90;99.90
2002;DHT22;1003;48.002;7.788;2023-05-07T10:40:16;19.30;99.90
2002;DHT22;1003;48.002;7.788;2023-05-07T10:42:56;19.20;99.90
2002;DHT22;1003;48.002;7.788;2023-05-07T10:45:25;19.10;99.90
2002;DHT22;1003;48.002;7.788;2023-05-07T10:48:06;18.80;99.90
2002;DHT22;1003;48.002;7.788;2023-05-07T10:50:35;18.70;99.90
2002;DHT22;1003;48.002;7.788;2023-05-07T10:53:23;18.50;99.90
2002;DHT22;1003;48.002;7.788;2023-05-07T10:58:52;18.40;99.90
2002;DHT22;1003;48.002;7.788;2023-05-07T11:01:50;18.80;99.90
2002;DHT22;1003;48.002;7.788;2023-05-07T11:04:19;19.00;99.90
2002;DHT22;1003;48.002;7.788;2023-05-07T11:07:25;19.20;99.90
2002;DHT22;1003;48.002;7.788;2023-05-07T11:09:58;19.30;99.90
2002;DHT22;1003;48.002;7.788;2023-05-07T11:12:54;19.70;99.90
2002;DHT22;1003;48.002;7.788;2023-05-07T11:15:45;19.80;99.90
2002;DHT22;1003;48.002;7.788;2023-05-07T11:18:14;20.30;99.90
2002;DHT22;1003;48.002;7.788;2023-05-07T11:21:00;20.60;99.90
2002;DHT22;1003;48.002;7.788;2023-05-07T11:23:56;20.80;99.90
2002;DHT22;1003;48.002;7.788;2023-05-07T11:26:26;21.20;99.90
2002;DHT22;1003;48.002;7.788;2023-05-07T11:28:54;21.60;99.90
2002;DHT22;1003;48.002;7.788;2023-05-07T11:31:26;21.60;99.90
2002;DHT22;1003;48.002;7.788;2023-05-07T11:33:55;21.40;99.90
2002;DHT22;1003;48.002;7.788;2023-05-07T11:36:23;21.60;99.90
2002;DHT22;1003;48.002;7.788;2023-05-07T11:38:51;21.70;99.90
2002;DHT22;1003;48.002;7.788;2023-05-07T11:41:18;21.70;99.90
2002;DHT22;1003;48.002;7.788;2023-05-07T11:43:56;22.00;99.90
2002;DHT22;1003;48.002;7.788;2023-05-07T11:46:26;22.00;99.90
2002;DHT22;1003;48.002;7.788;2023-05-07T11:48:55;22.20;99.90
2002;DHT22;1003;48.002;7.788;2023-05-07T11:51:24;22.20;99.90
2002;DHT22;1003;48.002;7.788;2023-05-07T11:53:53;22.50;99.90
2002;DHT22;1003;48.002;7.788;2023-05-07T11:56:20;22.20;99.90
2002;DHT22;1003;48.002;7.788;2023-05-07T11:58:47;22.50;99.90
2002;DHT22;1003;48.002;7.788;2023-05-07T12:01:16;22.40;99.90
2002;DHT22;1003;48.002;7.788;2023-05-07T12:03:46;22.70;99.90
2002;DHT22;1003;48.002;7.788;2023-05-07T12:06:14;22.40;99.90
2002;DHT22;1003;48.002;7.788;2023-05-07T12:08:45;22.30;99.90
2002;DHT22;1003;48.002;7.788;2023-05-07T12:11:14;22.20;99.90
2002;DHT22;1003;48.002;7.788;2023-05-07T12:13:49;22.10;99.90
2002;DHT22;1003;48.002;7.788;2023-05-07T12:16:16;22.20;99.90
2002;DHT22;1003;48.002;7.788;2023-05-07T12:18:46;22.30;99.90
2002;DHT22;1003;48.002;7.788;2023-05-07T12:21:14;22.40;99.90
2002;DHT22;1003;48.002;7.788;2023-05-07T12:23:42;22.50;99.90
2002;DHT22;1003;48.002;7.788;2023-05-07T12:26:10;22.60;99.90
2002;DHT22;1003;48.002;7.788;2023-05-07T12:28:38;22.40;99.90
2002;DHT22;1003;48.002;7.788;2023-05-07T12:31:05;22.50;99.90
2002;DHT22;1003;48.002;7.788;2023-05-07T12:33:34;22.70;99.90
2002;DHT22;1003;48.002;7.788;2023-05-07T12:36:07;22.70;99.90
2002;DHT22;1003;48.002;7.788;2023-05-07T12:38:36;22.80;99.90
2002;DHT22;1003;48.002;7.788;2023-05-07T12:41:05;22.80;99.90
2002;DHT22;1003;48.002;7.788;2023-05-07T12:43:33;22.70;99.90
2002;DHT22;1003;48.002;7.788;2023-05-07T12:46:01;22.70;99.90
2002;DHT22;1003;48.002;7.788;2023-05-07T12:48:31;22.60;99.90
2002;DHT22;1003;48.002;7.788;2023-05-07T12:51:00;22.40;99.90
2002;DHT22;1003;48.002;7.788;2023-05-07T12:53:30;22.40;99.90
2002;DHT22;1003;48.002;7.788;2023-05-07T12:55:58;22.40;99.90
2002;DHT22;1003;48.002;7.788;2023-05-07T12:58:34;22.30;99.90
2002;DHT22;1003;48.002;7.788;2023-05-07T13:01:05;22.30;99.90
2002;DHT22;1003;48.002;7.788;2023-05-07T13:03:36;22.30;99.90
2002;DHT22;1003;48.002;7.788;2023-05-07T13:06:05;22.30;99.90
2002;DHT22;1003;48.002;7.788;2023-05-07T13:08:38;22.60;99.90
2002;DHT22;1003;48.002;7.788;2023-05-07T13:11:09;22.70;99.90
2002;DHT22;1003;48.002;7.788;2023-05-07T13:13:38;22.40;99.90
2002;DHT22;1003;48.002;7.788;2023-05-07T13:16:07;22.70;99.90
2002;DHT22;1003;48.002;7.788;2023-05-07T13:18:37;22.70;99.90
2002;DHT22;1003;48.002;7.788;2023-05-07T13:21:05;22.60;99.90
2002;DHT22;1003;48.002;7.788;2023-05-07T13:23:33;22.50;99.90
2002;DHT22;1003;48.002;7.788;2023-05-07T13:26:01;22.30;99.90
2002;DHT22;1003;48.002;7.788;2023-05-07T13:28:28;22.10;99.90
2002;DHT22;1003;48.002;7.788;2023-05-07T13:30:56;22.00;99.90
2002;DHT22;1003;48.002;7.788;2023-05-07T13:33:23;22.20;99.90
2002;DHT22;1003;48.002;7.788;2023-05-07T13:35:50;22.20;99.90
2002;DHT22;1003;48.002;7.788;2023-05-07T13:38:17;21.90;99.90
2002;DHT22;1003;48.002;7.788;2023-05-07T13:40:46;21.80;99.90
2002;DHT22;1003;48.002;7.788;2023-05-07T13:43:14;21.90;99.90
2002;DHT22;1003;48.002;7.788;2023-05-07T13:45:43;21.60;99.90
2002;DHT22;1003;48.002;7.788;2023-05-07T13:48:10;21.60;99.90
2002;DHT22;1003;48.002;7.788;2023-05-07T13:50:37;21.80;99.90
2002;DHT22;1003;48.002;7.788;2023-05-07T13:53:04;21.90;99.90
2002;DHT22;1003;48.002;7.788;2023-05-07T13:55:31;21.90;99.90
2002;DHT22;1003;48.002;7.788;2023-05-07T13:58:02;22.20;99.90
2002;DHT22;1003;48.002;7.788;2023-05-07T14:00:30;22.40;99.90
2002;DHT22;1003;48.002;7.788;2023-05-07T14:02:58;22.50;99.90
2002;DHT22;1003;48.002;7.788;2023-05-07T14:05:25;22.60;99.90
2002;DHT22;1003;48.002;7.788;2023-05-07T14:07:53;22.10;99.90
2002;DHT22;1003;48.002;7.788;2023-05-07T14:10:22;22.60;99.90
2002;DHT22;1003;48.002;7.788;2023-05-07T14:12:49;22.60;99.90
2002;DHT22;1003;48.002;7.788;2023-05-07T14:15:16;22.40;99.90
2002;DHT22;1003;48.002;7.788;2023-05-07T14:17:45;22.50;99.90
2002;DHT22;1003;48.002;7.788;2023-05-07T14:20:12;22.40;99.90
2002;DHT22;1003;48.002;7.788;2023-05-07T14:22:39;22.70;99.90
2002;DHT22;1003;48.002;7.788;2023-05-07T14:25:07;22.90;99.90
2002;DHT22;1003;48.002;7.788;2023-05-07T14:27:36;23.10;99.90
2002;DHT22;1003;48.002;7.788;2023-05-07T14:30:03;23.40;99.90
2002;DHT22;1003;48.002;7.788;2023-05-07T14:32:31;23.40;99.90
2002;DHT22;1003;48.002;7.788;2023-05-07T14:35:00;23.60;99.90
2002;DHT22;1003;48.002;7.788;2023-05-07T14:37:27;23.70;99.90
2002;DHT22;1003;48.002;7.788;2023-05-07T14:39:54;23.50;99.90
2002;DHT22;1003;48.002;7.788;2023-05-07T14:42:21;23.40;99.90
2002;DHT22;1003;48.002;7.788;2023-05-07T14:44:48;23.20;99.90
2002;DHT22;1003;48.002;7.788;2023-05-07T14:47:15;23.00;99.90
2002;DHT22;1003;48.002;7.788;2023-05-07T14:49:45;22.80;99.90
2002;DHT22;1003;48.002;7.788;2023-05-07T14:52:14;22.60;99.90
2002;DHT22;1003;48.002;7.788;2023-05-07T14:54:41;22.50;99.90
2002;DHT22;1003;48.002;7.788;2023-05-07T14:57:09;22.40;99.90
2002;DHT22;1003;48.002;7.788;2023-05-07T14:59:39;22.50;99.90
2002;DHT22;1003;48.002;7.788;2023-05-07T15:02:07;22.50;99.90
2002;DHT22;1003;48.002;7.788;2023-05-07T15:04:34;22.30;99.90
2002;DHT22;1003;48.002;7.788;2023-05-07T15:07:03;22.30;99.90
2002;DHT22;1003;48.002;7.788;2023-05-07T15:09:32;22.30;99.90
2002;DHT22;1003;48.002;7.788;2023-05-07T15:11:59;22.30;99.90
2002;DHT22;1003;48.002;7.788;2023-05-07T15:14:28;22.40;99.90
2002;DHT22;1003;48.002;7.788;2023-05-07T15:16:55;22.40;99.90
2002;DHT22;1003;48.002;7.788;2023-05-07T15:19:22;22.40;99.90
2002;DHT22;1003;48.002;7.788;2023-05-07T15:21:54;22.30;99.90
2002;DHT22;1003;48.002;7.788;2023-05-07T15:24:22;22.30;99.90
2002;DHT22;1003;48.002;7.788;2023-05-07T15:26:51;22.30;99.90
2002;DHT22;1003;48.002;7.788;2023-05-07T15:29:19;22.30;99.90
2002;DHT22;1003;48.002;7.788;2023-05-07T15:31:46;22.30;99.90
2002;DHT22;1003;48.002;7.788;2023-05-07T15:34:13;22.30;99.90
2002;DHT22;1003;48.002;7.788;2023-05-07T15:36:40;22.30;99.90
2002;DHT22;1003;48.002;7.788;2023-05-07T15:39:07;22.20;99.90
2002;DHT22;1003;48.002;7.788;2023-05-07T15:41:35;22.00;99.90
2002;DHT22;1003;48.002;7.788;2023-05-07T15:44:04;22.00;99.90
2002;DHT22;1003;48.002;7.788;2023-05-07T15:46:31;22.10;99.90
2002;DHT22;1003;48.002;7.788;2023-05-07T15:49:01;22.00;99.90
2002;DHT22;1003;48.002;7.788;2023-05-07T15:51:30;22.00;99.90
2002;DHT22;1003;48.002;7.788;2023-05-07T15:53:57;21.80;99.90
2002;DHT22;1003;48.002;7.788;2023-05-07T15:56:24;21.90;99.90
2002;DHT22;1003;48.002;7.788;2023-05-07T15:58:51;22.00;99.90
2002;DHT22;1003;48.002;7.788;2023-05-07T16:01:20;21.90;99.90
2002;DHT22;1003;48.002;7.788;2023-05-07T16:03:47;21.90;99.90
2002;DHT22;1003;48.002;7.788;2023-05-07T16:06:14;22.00;99.90
2002;DHT22;1003;48.002;7.788;2023-05-07T16:08:41;22.00;99.90
2002;DHT22;1003;48.002;7.788;2023-05-07T16:11:09;22.00;99.90
2002;DHT22;1003;48.002;7.788;2023-05-07T16:13:36;22.00;99.90